Time;durP1;ratioP1;P1;durP2;ratioP2;P2;SDS_P1;SDS_P2;PMS_P1;PMS_P2;Temp;Humidity;BMP_temperature;BMP_pressure;BME280_temperature;BME280_humidity;BME280_pressure;Samples;Min_cycle;Max_cycle;Signal;HPM_P1;HPM_P2
2023/12/08 00:01:19;;;;;;;2.00;1.80;;;;;;;10.82;65.21;100684.72;5047396;28;20086;-66
2023/12/08 00:03:44;;;;;;;1.95;1.63;;;;;;;10.81;65.54;100678.50;5055323;28;20376;-66
2023/12/08 00:06:10;;;;;;;2.15;1.95;;;;;;;10.81;65.16;100673.19;5049425;28;20029;-66
2023/12/08 00:08:37;;;;;;;2.10;1.77;;;;;;;10.81;65.37;100686.50;5050978;28;20033;-66
2023/12/08 00:11:03;;;;;;;1.70;1.60;;;;;;;10.81;65.46;100675.84;5051835;28;20025;-66
2023/12/08 00:13:28;;;;;;;2.15;1.45;;;;;;;10.81;65.39;100680.34;5048855;28;20033;-66
2023/12/08 00:15:54;;;;;;;2.38;1.83;;;;;;;10.82;65.45;100682.06;5046065;28;20044;-66
2023/12/08 00:18:19;;;;;;;1.88;1.70;;;;;;;10.81;65.17;100667.88;5049913;28;20052;-66
2023/12/08 00:20:45;;;;;;;1.83;1.67;;;;;;;10.82;65.43;100671.41;5048809;28;20453;-66
2023/12/08 00:23:10;;;;;;;2.38;1.80;;;;;;;10.82;65.36;100666.91;5053284;28;20390;-66
2023/12/08 00:25:36;;;;;;;1.88;1.67;;;;;;;10.82;65.22;100664.25;5051179;28;20029;-66
2023/12/08 00:28:03;;;;;;;2.15;1.90;;;;;;;10.82;65.09;100669.59;5050626;28;20360;-66
2023/12/08 00:30:29;;;;;;;3.03;2.10;;;;;;;10.82;65.36;100674.91;5044465;28;20033;-66
2023/12/08 00:32:54;;;;;;;2.25;1.85;;;;;;;10.82;65.25;100672.25;5050552;28;20056;-67
2023/12/08 00:35:21;;;;;;;1.88;1.73;;;;;;;10.82;65.33;100666.06;5044512;28;20619;-67
2023/12/08 00:37:46;;;;;;;2.10;1.90;;;;;;;10.82;65.29;100658.94;5045790;28;20079;-66
2023/12/08 00:40:12;;;;;;;2.72;1.90;;;;;;;10.83;65.23;100657.97;5052480;28;20064;-66
2023/12/08 00:42:37;;;;;;;2.80;1.85;;;;;;;10.82;65.23;100653.59;5051610;28;20083;-67
2023/12/08 00:45:04;;;;;;;2.13;1.80;;;;;;;10.82;64.99;100656.28;5050996;28;20028;-66
2023/12/08 00:47:30;;;;;;;2.05;1.80;;;;;;;10.82;65.23;100650.09;5045601;28;20106;-67
2023/12/08 00:49:55;;;;;;;3.15;1.85;;;;;;;10.82;65.19;100642.09;5047387;28;20785;-66
2023/12/08 00:52:21;;;;;;;1.77;1.60;;;;;;;10.82;65.34;100655.41;5044410;28;20057;-66
2023/12/08 00:54:47;;;;;;;2.15;1.77;;;;;;;10.82;65.00;100661.59;5049681;28;20364;-66
2023/12/08 00:57:12;;;;;;;2.28;2.08;;;;;;;10.82;65.50;100653.59;5053671;28;20041;-67
2023/12/08 00:59:38;;;;;;;2.60;2.22;;;;;;;10.83;65.20;100641.13;5049738;28;20033;-66
2023/12/08 01:02:04;;;;;;;1.90;1.80;;;;;;;10.83;64.93;100646.47;5045182;28;20108;-66
2023/12/08 01:04:29;;;;;;;2.05;1.85;;;;;;;10.82;65.24;100640.28;5052471;28;20036;-66
2023/12/08 01:06:54;;;;;;;2.20;2.00;;;;;;;10.82;65.07;100634.97;5048848;28;20083;-66
2023/12/08 01:09:20;;;;;;;2.40;1.83;;;;;;;10.82;65.20;100637.63;5048839;28;20481;-66
2023/12/08 01:11:45;;;;;;;2.38;1.83;;;;;;;10.82;65.07;100634.97;5049156;28;20044;-66
2023/12/08 01:14:10;;;;;;;2.10;1.88;;;;;;;10.82;65.04;100632.28;5052403;28;20081;-66
2023/12/08 01:16:42;;;;;;;3.70;1.85;;;;;;;10.82;64.94;100632.28;5050824;28;20114;-66
2023/12/08 01:19:08;;;;;;;;;;;;;;;10.87;65.24;100627.53;5047961;28;20029;-66
2023/12/08 01:21:38;;;;;;;2.28;1.90;;;;;;;10.83;64.86;100631.31;5044145;28;20412;-66
2023/12/08 01:24:04;;;;;;;2.83;2.00;;;;;;;10.83;64.92;100625.16;5043244;28;20127;-66
2023/12/08 01:26:30;;;;;;;2.13;1.60;;;;;;;10.82;64.92;100621.66;5048692;28;20038;-66
2023/12/08 01:28:55;;;;;;;2.38;2.13;;;;;;;10.83;65.02;100623.34;5046464;28;20056;-67
2023/12/08 01:31:21;;;;;;;2.35;2.05;;;;;;;10.83;65.10;100619.81;5049502;28;20429;-66
2023/12/08 01:33:47;;;;;;;2.05;1.85;;;;;;;10.83;64.74;100617.16;5042640;28;20059;-66
2023/12/08 01:36:12;;;;;;;2.10;1.75;;;;;;;10.83;64.86;100618.00;5046207;28;20041;-66
2023/12/08 01:38:37;;;;;;;2.13;1.65;;;;;;;10.82;65.22;100607.47;5047882;28;20040;-66
2023/12/08 01:41:03;;;;;;;1.65;1.55;;;;;;;10.83;65.02;100609.16;5049345;28;20545;-67
2023/12/08 01:43:28;;;;;;;1.75;1.50;;;;;;;10.82;65.10;100600.34;5045644;28;20365;-66
2023/12/08 01:45:56;;;;;;;2.95;2.10;;;;;;;10.83;65.23;100598.53;5047337;28;20033;-66
2023/12/08 01:48:23;;;;;;;1.95;1.75;;;;;;;10.82;65.20;100603.00;5052480;28;20032;-66
2023/12/08 01:50:49;;;;;;;2.15;1.80;;;;;;;10.83;64.95;100598.53;5042473;28;20037;-66
2023/12/08 01:53:14;;;;;;;2.10;1.90;;;;;;;10.83;64.88;100590.53;5048401;28;20058;-66
2023/12/08 01:55:39;;;;;;;2.45;2.25;;;;;;;10.83;65.17;100598.53;5048792;28;20029;-66
2023/12/08 01:58:06;;;;;;;1.88;1.73;;;;;;;10.83;65.10;100595.84;5048805;28;20032;-66
2023/12/08 02:00:32;;;;;;;2.08;1.88;;;;;;;10.82;65.09;100581.69;5050028;28;20094;-66
2023/12/08 02:02:58;;;;;;;2.25;2.05;;;;;;;10.83;64.88;100583.38;5046047;28;20029;-66
2023/12/08 02:05:25;;;;;;;1.63;1.52;;;;;;;10.83;65.16;100596.69;5051821;28;20032;-66
2023/12/08 02:07:52;;;;;;;2.05;1.83;;;;;;;10.82;65.11;100592.34;5047917;28;20082;-66
2023/12/08 02:10:18;;;;;;;1.70;1.60;;;;;;;10.82;64.82;100589.69;5050697;28;20063;-66
2023/12/08 02:12:44;;;;;;;1.95;1.75;;;;;;;10.82;64.87;100576.38;5047214;28;20060;-67
2023/12/08 02:15:12;;;;;;;1.58;1.48;;;;;;;10.83;65.02;100567.41;5046062;28;20494;-66
2023/12/08 02:17:38;;;;;;;2.35;1.90;;;;;;;10.82;64.79;100563.06;5049998;28;20127;-66
2023/12/08 02:20:09;;;;;;;2.55;1.88;;;;;;;10.82;64.89;100560.38;5043691;28;20387;-66
2023/12/08 02:22:35;;;;;;;2.00;1.88;;;;;;;10.83;65.06;100551.44;5044418;28;20089;-66
2023/12/08 02:25:00;;;;;;;2.28;1.60;;;;;;;10.83;64.83;100546.09;5050886;28;20486;-66
2023/12/08 02:27:25;;;;;;;2.05;1.85;;;;;;;10.84;64.94;100546.97;5048061;28;20029;-66
2023/12/08 02:29:51;;;;;;;1.88;1.75;;;;;;;10.84;65.05;100544.31;5039645;28;20052;-66
2023/12/08 02:32:25;;;;;;;1.67;1.58;;;;;;;10.83;64.87;100530.13;5049617;28;20037;-66
2023/12/08 02:34:52;;;;;;;2.10;1.83;;;;;;;10.82;64.91;100533.75;5041801;28;20399;-66
2023/12/08 02:37:19;;;;;;;1.75;1.65;;;;;;;10.83;65.17;100538.09;5039787;28;20067;-66
2023/12/08 02:39:48;;;;;;;1.58;1.48;;;;;;;10.83;65.15;100554.09;5049241;28;20064;-66
2023/12/08 02:42:14;;;;;;;2.00;1.70;;;;;;;10.82;65.10;100552.41;5048274;28;20032;-66
2023/12/08 02:44:39;;;;;;;1.83;1.70;;;;;;;10.83;64.94;100543.44;5049893;28;20056;-66
2023/12/08 02:47:05;;;;;;;2.35;1.50;;;;;;;10.82;65.10;100541.75;5041521;28;20463;-66
2023/12/08 02:49:30;;;;;;;1.70;1.60;;;;;;;10.82;65.09;100544.41;5048287;28;20174;-66
2023/12/08 02:51:56;;;;;;;2.17;1.67;;;;;;;10.82;65.15;100540.91;5040724;28;20128;-66
2023/12/08 02:54:21;;;;;;;2.10;1.77;;;;;;;10.83;65.16;100532.78;5042126;28;20060;-66
2023/12/08 02:56:46;;;;;;;2.10;1.83;;;;;;;10.83;65.12;100530.13;5049316;28;20025;-66
2023/12/08 02:59:12;;;;;;;2.10;1.90;;;;;;;10.83;65.06;100534.59;5046526;28;20031;-66
2023/12/08 03:01:37;;;;;;;1.95;1.50;;;;;;;10.82;64.93;100541.75;5040135;28;20238;-66
2023/12/08 03:04:03;;;;;;;1.60;1.38;;;;;;;10.81;65.01;100542.69;5039367;28;20057;-66
2023/12/08 03:06:28;;;;;;;1.70;1.50;;;;;;;10.82;65.01;100547.06;5045676;28;20041;-66
2023/12/08 03:08:53;;;;;;;2.22;2.03;;;;;;;10.83;64.93;100546.09;5054629;28;20040;-66
2023/12/08 03:11:19;;;;;;;2.13;1.92;;;;;;;10.83;64.82;100550.59;5053674;28;20025;-66
2023/12/08 03:13:44;;;;;;;2.00;1.80;;;;;;;10.82;64.86;100549.75;5048175;28;20052;-66
2023/12/08 03:16:09;;;;;;;1.98;1.77;;;;;;;10.83;65.02;100546.09;5049285;28;20031;-66
2023/12/08 03:18:35;;;;;;;2.60;1.90;;;;;;;10.83;64.76;100540.78;5052186;28;20043;-66
2023/12/08 03:21:00;;;;;;;1.70;1.60;;;;;;;10.83;64.64;100535.44;5050925;28;20091;-67
2023/12/08 03:23:25;;;;;;;2.30;1.80;;;;;;;10.83;64.69;100540.78;5041970;28;20042;-66
2023/12/08 03:25:51;;;;;;;1.95;1.75;;;;;;;10.83;64.95;100539.94;5053508;28;20039;-66
2023/12/08 03:28:16;;;;;;;2.17;1.98;;;;;;;10.84;64.91;100550.47;5049478;28;20039;-66
2023/12/08 03:30:41;;;;;;;2.47;1.70;;;;;;;10.84;64.58;100544.31;5056015;28;20609;-66
2023/12/08 03:33:07;;;;;;;2.15;1.85;;;;;;;10.83;64.75;100545.25;5050359;28;20132;-66
2023/12/08 03:35:32;;;;;;;2.22;2.03;;;;;;;10.83;64.63;100534.59;5050642;28;20047;-66
2023/12/08 03:37:58;;;;;;;2.03;1.80;;;;;;;10.84;64.80;100533.66;5052002;28;20416;-66
2023/12/08 03:40:23;;;;;;;2.10;2.00;;;;;;;10.82;64.49;100536.41;5042877;28;20041;-66
2023/12/08 03:42:48;;;;;;;1.95;1.73;;;;;;;10.84;64.79;100528.34;5051765;28;20036;-66
2023/12/08 03:45:14;;;;;;;2.40;2.13;;;;;;;10.82;64.72;100531.09;5049761;28;20037;-66
2023/12/08 03:47:39;;;;;;;2.33;2.10;;;;;;;10.83;64.87;100530.13;5054246;28;20082;-66
2023/12/08 03:50:05;;;;;;;2.78;2.05;;;;;;;10.83;64.93;100527.44;5053823;28;20078;-66
2023/12/08 03:52:30;;;;;;;3.10;1.90;;;;;;;10.82;64.52;100520.44;5050580;28;20502;-66
2023/12/08 03:54:55;;;;;;;2.03;1.55;;;;;;;10.83;64.56;100516.81;5044953;28;20162;-66
2023/12/08 03:57:21;;;;;;;1.95;1.70;;;;;;;10.81;64.86;100513.41;5046984;28;20064;-66
2023/12/08 03:59:46;;;;;;;2.20;2.00;;;;;;;10.83;64.79;100518.63;5047840;28;20190;-66
2023/12/08 04:02:11;;;;;;;1.77;1.67;;;;;;;10.83;64.80;100513.28;5050867;28;20029;-66
2023/12/08 04:04:37;;;;;;;3.13;1.90;;;;;;;10.82;64.63;100512.44;5049423;28;20430;-66
2023/12/08 04:07:02;;;;;;;2.00;1.67;;;;;;;10.83;64.43;100510.63;5050747;28;20034;-66
2023/12/08 04:09:29;;;;;;;2.35;1.80;;;;;;;10.82;64.80;100500.97;5046130;28;20033;-66
2023/12/08 04:11:55;;;;;;;2.15;1.92;;;;;;;10.83;64.85;100500.81;5053102;28;20124;-66
2023/12/08 04:14:20;;;;;;;2.28;1.95;;;;;;;10.82;64.45;100506.28;5045096;28;20527;-66
2023/12/08 04:16:46;;;;;;;1.90;1.80;;;;;;;10.82;64.87;100509.78;5049746;28;20025;-67
2023/12/08 04:19:12;;;;;;;2.28;1.98;;;;;;;10.82;64.80;100503.63;5053289;28;20059;-66
2023/12/08 04:21:38;;;;;;;1.75;1.65;;;;;;;10.82;64.55;100509.78;5049601;28;20030;-66
2023/12/08 04:24:04;;;;;;;1.92;1.83;;;;;;;10.82;64.59;100491.16;5053939;28;20035;-67
2023/12/08 04:26:29;;;;;;;1.77;1.67;;;;;;;10.81;64.74;100484.09;5045687;28;20029;-66
2023/12/08 04:28:54;;;;;;;1.98;1.77;;;;;;;10.81;64.79;100477.94;5048937;28;20024;-67
2023/12/08 04:31:20;;;;;;;1.77;1.67;;;;;;;10.83;64.52;100511.47;5046495;28;20028;-67
2023/12/08 04:33:47;;;;;;;2.38;1.60;;;;;;;10.83;64.80;100505.31;5050912;28;20056;-67
2023/12/08 04:36:12;;;;;;;2.35;1.88;;;;;;;10.82;64.96;100507.13;5052006;28;20090;-67
2023/12/08 04:38:37;;;;;;;1.98;1.80;;;;;;;10.83;64.72;100510.63;5051673;28;20234;-67
2023/12/08 04:41:03;;;;;;;1.90;1.67;;;;;;;10.82;64.79;100517.78;5048706;28;20036;-67
2023/12/08 04:43:28;;;;;;;2.20;2.00;;;;;;;10.83;64.40;100503.50;5045862;28;20075;-67
2023/12/08 04:45:54;;;;;;;1.85;1.58;;;;;;;10.83;64.66;100492.00;5051416;28;20050;-67
2023/12/08 04:48:19;;;;;;;1.52;1.42;;;;;;;10.83;64.76;100490.16;5046034;28;20033;-66
2023/12/08 04:50:45;;;;;;;2.58;1.90;;;;;;;10.83;64.50;100498.16;5049283;28;20024;-67
2023/12/08 04:53:11;;;;;;;2.80;2.13;;;;;;;10.82;64.50;100509.78;5046336;28;20080;-67
2023/12/08 04:55:37;;;;;;;3.40;1.88;;;;;;;10.82;64.51;100509.78;5049988;28;20037;-67
2023/12/08 04:58:02;;;;;;;2.58;1.98;;;;;;;10.83;64.50;100505.31;5053386;28;20474;-67
2023/12/08 05:00:27;;;;;;;1.95;1.77;;;;;;;10.82;64.70;100501.81;5042389;28;20029;-66
2023/12/08 05:02:53;;;;;;;1.90;1.80;;;;;;;10.81;64.71;100494.75;5042113;28;20021;-67
2023/12/08 05:05:18;;;;;;;2.30;1.63;;;;;;;10.82;64.58;100490.31;5051175;28;20041;-67
2023/12/08 05:07:44;;;;;;;2.55;1.92;;;;;;;10.81;64.65;100489.44;5044442;28;20070;-66
2023/12/08 05:10:09;;;;;;;2.17;1.90;;;;;;;10.82;64.70;100491.16;5054584;28;20475;-67
2023/12/08 05:12:35;;;;;;;1.52;1.42;;;;;;;10.81;64.47;100492.09;5045584;28;20025;-67
2023/12/08 05:15:00;;;;;;;2.30;2.10;;;;;;;10.82;64.73;100490.31;5040132;28;20075;-67
2023/12/08 05:17:26;;;;;;;1.92;1.83;;;;;;;10.82;64.34;100488.47;5043878;28;20033;-67
2023/12/08 05:19:52;;;;;;;1.88;1.67;;;;;;;10.81;64.60;100476.13;5040878;28;20037;-67
2023/12/08 05:22:17;;;;;;;2.38;1.77;;;;;;;10.81;64.42;100481.44;5050485;28;20032;-67
2023/12/08 05:24:42;;;;;;;2.20;1.70;;;;;;;10.81;64.52;100468.13;5046868;28;20052;-67
2023/12/08 05:27:08;;;;;;;2.33;1.90;;;;;;;10.81;64.22;100469.94;5052617;28;20103;-66
2023/12/08 05:29:33;;;;;;;1.63;1.52;;;;;;;10.81;64.68;100468.13;5046706;28;20037;-67
2023/12/08 05:31:58;;;;;;;2.03;1.80;;;;;;;10.82;64.37;100483.16;5047113;28;20025;-67
2023/12/08 05:34:24;;;;;;;1.98;1.70;;;;;;;10.81;64.51;100494.75;5048016;28;20138;-66
2023/12/08 05:36:49;;;;;;;1.90;1.75;;;;;;;10.81;64.65;100491.25;5045219;28;20021;-67
2023/12/08 05:39:16;;;;;;;2.95;2.10;;;;;;;10.82;64.36;100506.28;5051003;28;20063;-66
2023/12/08 05:41:41;;;;;;;2.15;1.95;;;;;;;10.81;64.64;100500.09;5050066;28;20025;-67
2023/12/08 05:44:07;;;;;;;2.28;2.08;;;;;;;10.81;64.33;100496.56;5044909;28;20083;-67
2023/12/08 05:46:32;;;;;;;2.78;2.05;;;;;;;10.82;64.41;100501.81;5049466;28;20036;-67
2023/12/08 05:48:57;;;;;;;2.40;1.90;;;;;;;10.82;64.31;100508.94;5047993;28;20109;-67
2023/12/08 05:51:23;;;;;;;2.05;1.70;;;;;;;10.81;64.24;100508.06;5050390;28;20061;-67
2023/12/08 05:53:48;;;;;;;2.63;1.73;;;;;;;10.81;64.78;100505.41;5044340;28;20523;-67
2023/12/08 05:56:14;;;;;;;2.17;1.67;;;;;;;10.81;64.04;100499.25;5048755;28;20458;-67
2023/12/08 05:58:39;;;;;;;2.20;1.90;;;;;;;10.81;64.42;100499.25;5048520;28;20079;-67
2023/12/08 06:01:04;;;;;;;1.92;1.73;;;;;;;10.80;64.67;100506.38;5042266;28;20467;-66
2023/12/08 06:03:30;;;;;;;2.45;2.00;;;;;;;10.80;64.57;100509.06;5043071;28;20044;-67
2023/12/08 06:05:55;;;;;;;1.70;1.60;;;;;;;10.81;64.61;100505.41;5049825;28;20056;-67
2023/12/08 06:08:20;;;;;;;2.30;2.10;;;;;;;10.80;64.47;100495.72;5045257;28;20030;-67
2023/12/08 06:10:46;;;;;;;2.30;1.98;;;;;;;10.81;64.41;100484.09;5047929;28;20077;-66
2023/12/08 06:13:13;;;;;;;2.08;1.80;;;;;;;10.81;64.59;100485.94;5051537;28;20065;-67
2023/12/08 06:15:39;;;;;;;2.60;2.05;;;;;;;10.81;64.47;100496.56;5041680;28;20457;-67
2023/12/08 06:18:04;;;;;;;1.58;1.48;;;;;;;10.81;64.29;100500.09;5050353;28;20116;-67
2023/12/08 06:20:30;;;;;;;2.33;1.95;;;;;;;10.80;64.37;100498.41;5050429;28;20037;-67
2023/12/08 06:22:55;;;;;;;2.17;1.98;;;;;;;10.81;64.49;100500.09;5049287;28;20078;-67
2023/12/08 06:25:21;;;;;;;2.20;1.73;;;;;;;10.81;64.54;100515.22;5048300;28;20028;-67
2023/12/08 06:27:46;;;;;;;2.70;2.08;;;;;;;10.81;64.18;100507.22;5046083;28;20037;-66
2023/12/08 06:30:12;;;;;;;1.98;1.77;;;;;;;10.81;64.27;100518.72;5046336;28;20479;-67
2023/12/08 06:32:38;;;;;;;2.00;1.80;;;;;;;10.81;64.51;100516.06;5045740;28;20056;-67
2023/12/08 06:35:04;;;;;;;2.50;1.80;;;;;;;10.82;64.22;100511.59;5049047;28;20395;-67
2023/12/08 06:37:29;;;;;;;2.20;1.75;;;;;;;10.82;64.47;100514.28;5051214;28;20073;-67
2023/12/08 06:39:54;;;;;;;2.17;1.85;;;;;;;10.81;64.32;100517.88;5050915;28;20128;-67
2023/12/08 06:42:20;;;;;;;1.73;1.60;;;;;;;10.81;64.28;100518.72;5053773;28;20032;-67
2023/12/08 06:44:45;;;;;;;2.00;1.80;;;;;;;10.81;64.24;100510.72;5045629;28;20032;-67
2023/12/08 06:47:10;;;;;;;1.80;1.60;;;;;;;10.82;64.50;100523.09;5047022;28;20112;-67
2023/12/08 06:49:36;;;;;;;2.80;2.05;;;;;;;10.81;64.23;100524.06;5044028;28;20064;-67
2023/12/08 06:52:01;;;;;;;1.88;1.75;;;;;;;10.81;64.57;100521.38;5047339;28;20065;-67
2023/12/08 06:54:27;;;;;;;2.00;1.80;;;;;;;10.81;64.38;100524.06;5047820;28;20025;-67
2023/12/08 06:56:52;;;;;;;2.08;1.70;;;;;;;10.81;64.12;100526.72;5050582;28;20391;-67
2023/12/08 06:59:17;;;;;;;1.75;1.65;;;;;;;10.80;64.10;100530.34;5049571;28;20060;-67
2023/12/08 07:01:43;;;;;;;2.05;1.80;;;;;;;10.81;64.35;100526.72;5045053;28;20074;-67
2023/12/08 07:04:08;;;;;;;2.17;1.98;;;;;;;10.81;64.09;100529.38;5047498;28;20033;-67
2023/12/08 07:06:33;;;;;;;2.38;1.80;;;;;;;10.81;64.26;100531.19;5048397;28;20127;-67
2023/12/08 07:09:00;;;;;;;3.50;2.17;;;;;;;10.80;64.33;100519.69;5043294;28;20036;-67
2023/12/08 07:11:25;;;;;;;3.53;2.15;;;;;;;10.81;64.14;100526.72;5042973;28;20040;-67
2023/12/08 07:13:50;;;;;;;1.80;1.70;;;;;;;10.81;64.06;100520.53;5042490;28;20033;-67
2023/12/08 07:16:16;;;;;;;2.00;1.80;;;;;;;10.81;63.99;100520.53;5050341;28;20053;-67
2023/12/08 07:18:41;;;;;;;2.85;1.98;;;;;;;10.83;64.71;100526.63;5047939;28;20032;-72
2023/12/08 07:21:07;;;;;;;1.88;1.77;;;;;;;10.84;64.88;100531.84;5044816;28;20094;-72
2023/12/08 07:23:33;;;;;;;3.47;2.13;;;;;;;10.84;65.06;100531.00;5049451;28;20029;-72
2023/12/08 07:25:59;;;;;;;3.20;2.38;;;;;;;10.85;65.19;100538.88;5046551;28;20037;-63
2023/12/08 07:28:24;;;;;;;4.45;2.65;;;;;;;10.86;65.04;100537.06;5040832;28;20029;-62
2023/12/08 07:30:50;;;;;;;3.55;2.53;;;;;;;10.85;64.96;100533.56;5049622;28;20068;-62
2023/12/08 07:33:15;;;;;;;2.78;2.28;;;;;;;10.86;64.94;100545.91;5046641;28;20047;-62
2023/12/08 07:35:41;;;;;;;3.33;2.20;;;;;;;10.85;65.22;100549.53;5043814;28;20142;-62
2023/12/08 07:38:06;;;;;;;3.03;2.42;;;;;;;10.85;64.94;100549.53;5050576;28;20444;-62
2023/12/08 07:40:32;;;;;;;2.60;2.25;;;;;;;10.84;64.86;100550.47;5047043;28;20441;-62
2023/12/08 07:42:57;;;;;;;3.40;2.67;;;;;;;10.85;65.25;100552.19;5048461;28;20036;-62
2023/12/08 07:45:22;;;;;;;3.42;2.78;;;;;;;10.85;65.08;100556.66;5046655;28;21017;-62
2023/12/08 07:47:48;;;;;;;2.20;2.00;;;;;;;10.84;64.86;100553.16;5049928;28;20029;-62
2023/12/08 07:50:13;;;;;;;3.65;2.80;;;;;;;10.84;64.93;100558.47;5039541;28;20494;-62
2023/12/08 07:52:41;;;;;;;3.15;2.33;;;;;;;10.84;65.02;100554.97;5049149;28;20380;-62
2023/12/08 07:55:10;;;;;;;3.85;2.40;;;;;;;10.84;65.05;100560.28;5049381;28;20032;-63
2023/12/08 07:57:35;;;;;;;3.80;2.83;;;;;;;10.83;65.17;100561.22;5051239;28;20083;-62
2023/12/08 08:00:01;;;;;;;2.95;2.15;;;;;;;10.86;65.28;100564.53;5057067;28;20489;-66
2023/12/08 08:02:26;;;;;;;3.90;2.72;;;;;;;10.89;65.76;100561.69;5036674;28;20045;-56
2023/12/08 08:04:52;;;;;;;2.83;2.45;;;;;;;10.95;66.27;100569.22;5052948;28;20032;-70
2023/12/08 08:07:17;;;;;;;6.40;2.88;;;;;;;11.02;66.09;100571.47;5047506;28;20032;-59
2023/12/08 08:09:43;;;;;;;4.65;2.63;;;;;;;11.04;66.34;100565.09;5048306;28;20029;-68
2023/12/08 08:12:09;;;;;;;3.30;2.55;;;;;;;11.05;65.81;100572.09;5051555;28;20029;-60
2023/12/08 08:14:35;;;;;;;4.88;2.78;;;;;;;11.09;66.43;100572.75;5047751;28;20172;-47
2023/12/08 08:17:01;;;;;;;9.70;3.38;;;;;;;11.13;66.23;100574.22;5055555;28;20127;-48
2023/12/08 08:19:27;;;;;;;4.82;2.55;;;;;;;11.16;66.39;100566.03;5044701;28;20478;-55
2023/12/08 08:21:52;;;;;;;4.13;2.63;;;;;;;11.15;65.94;100570.47;5040042;28;20025;-56
2023/12/08 08:24:18;;;;;;;4.00;2.78;;;;;;;11.13;66.11;100567.06;5051565;28;20035;-55
2023/12/08 08:26:43;;;;;;;5.20;2.65;;;;;;;11.11;65.85;100576.97;5049547;28;20536;-55
2023/12/08 08:29:09;;;;;;;4.70;2.35;;;;;;;11.10;65.86;100579.75;5044384;28;20499;-47
2023/12/08 08:31:35;;;;;;;5.57;2.65;;;;;;;11.08;65.85;100571.03;5050602;28;20052;-46
2023/12/08 08:34:00;;;;;;;4.38;2.70;;;;;;;11.06;65.66;100573.81;5049565;28;20057;-45
2023/12/08 08:36:25;;;;;;;3.40;2.35;;;;;;;11.06;65.95;100567.63;5051460;28;20033;-47
2023/12/08 08:38:51;;;;;;;4.82;3.05;;;;;;;11.03;65.68;100582.00;5049695;28;20104;-48
2023/12/08 08:41:17;;;;;;;4.13;2.90;;;;;;;11.03;65.79;100579.34;5045841;28;20017;-49
2023/12/08 08:43:42;;;;;;;3.88;2.30;;;;;;;11.03;65.77;100589.16;5051651;28;20029;-48
2023/12/08 08:46:08;;;;;;;4.65;2.65;;;;;;;11.01;65.65;100591.94;5045315;28;20041;-45
2023/12/08 08:48:33;;;;;;;2.55;2.30;;;;;;;11.00;65.73;100590.22;5052787;28;20028;-50
2023/12/08 08:50:58;;;;;;;5.03;2.30;;;;;;;10.99;65.25;100596.50;5048519;28;20123;-47
2023/12/08 08:53:24;;;;;;;3.13;1.95;;;;;;;10.99;65.64;100593.84;5048933;28;20040;-48
2023/12/08 08:55:49;;;;;;;4.70;3.50;;;;;;;10.97;65.65;100593.09;5050388;28;20140;-48
2023/12/08 08:58:15;;;;;;;3.60;2.70;;;;;;;10.98;65.49;100602.78;5044863;28;20034;-46
2023/12/08 09:00:41;;;;;;;3.17;2.50;;;;;;;10.96;65.59;100602.03;5047585;28;20075;-48
2023/12/08 09:03:06;;;;;;;4.60;2.75;;;;;;;10.96;65.26;100600.22;5042977;28;20021;-48
2023/12/08 09:05:34;;;;;;;5.78;2.67;;;;;;;10.95;65.12;100595.88;5045924;28;20090;-50
2023/12/08 09:07:59;;;;;;;3.22;2.92;;;;;;;10.95;65.27;100603.00;5043290;28;20040;-48
2023/12/08 09:10:25;;;;;;;3.03;2.65;;;;;;;10.94;65.58;100606.63;5049248;28;20040;-47
2023/12/08 09:12:50;;;;;;;3.17;2.50;;;;;;;10.94;65.40;100609.28;5054106;28;20390;-46
2023/12/08 09:15:16;;;;;;;2.53;2.13;;;;;;;10.94;65.65;100606.63;5048007;28;20108;-46
2023/12/08 09:17:42;;;;;;;2.45;2.08;;;;;;;10.92;65.15;100617.38;5047357;28;20390;-46
2023/12/08 09:20:13;;;;;;;3.88;2.45;;;;;;;10.93;65.14;100616.44;5048715;28;20040;-49
2023/12/08 09:22:39;;;;;;;;;;;;;;;10.99;65.39;100616.97;5049108;28;20037;-47
2023/12/08 09:25:04;;;;;;;2.65;2.42;;;;;;;10.93;65.22;100620.91;5054790;28;19923;-49
2023/12/08 09:27:29;;;;;;;6.82;2.60;;;;;;;10.92;65.16;100624.53;5045002;28;20029;-48
2023/12/08 09:29:55;;;;;;;2.53;2.17;;;;;;;10.93;65.05;100615.59;5048523;28;20467;-49
2023/12/08 09:32:20;;;;;;;4.53;2.15;;;;;;;10.92;65.52;100624.53;5044340;28;20060;-47
2023/12/08 09:34:46;;;;;;;3.03;2.58;;;;;;;10.92;65.01;100621.84;5046863;28;20048;-46
2023/12/08 09:37:11;;;;;;;2.58;2.35;;;;;;;10.92;65.17;100621.84;5048219;28;20057;-47
2023/12/08 09:39:36;;;;;;;3.88;3.15;;;;;;;10.91;65.22;100626.34;5051262;28;20029;-46
2023/12/08 09:42:07;;;;;;;3.53;2.70;;;;;;;10.91;65.21;100629.00;5051419;28;20024;-46
2023/12/08 09:44:33;;;;;;;4.47;2.60;;;;;;;10.90;65.09;100629.94;5045419;28;20479;-47
2023/12/08 09:47:02;;;;;;;3.55;2.63;;;;;;;10.90;65.30;100629.09;5049837;28;20056;-47
2023/12/08 09:49:29;;;;;;;2.25;2.00;;;;;;;10.89;65.16;100630.94;5045815;28;20041;-47
2023/12/08 09:51:55;;;;;;;4.28;2.55;;;;;;;10.90;64.94;100629.94;5052151;28;20037;-49
2023/12/08 09:54:22;;;;;;;3.38;2.47;;;;;;;10.90;64.96;100631.78;5048271;28;20379;-47
2023/12/08 09:56:54;;;;;;;3.38;2.50;;;;;;;10.90;64.89;100632.63;5048038;28;20037;-45
2023/12/08 09:59:29;;;;;;;3.70;2.65;;;;;;;10.90;65.28;100627.28;5047098;28;20091;-47
2023/12/08 10:01:54;;;;;;;3.83;2.53;;;;;;;10.90;65.04;100629.94;5044378;28;20036;-45
2023/12/08 10:04:20;;;;;;;2.92;2.50;;;;;;;10.90;65.15;100639.75;5053022;28;20391;-48
2023/12/08 10:06:47;;;;;;;4.35;2.28;;;;;;;10.90;64.98;100642.44;5042177;28;20060;-46
2023/12/08 10:09:19;;;;;;;3.38;2.67;;;;;;;10.90;65.25;100642.44;5049203;28;20479;-47
2023/12/08 10:11:44;;;;;;;4.50;2.33;;;;;;;10.89;65.22;100636.25;5047426;28;20103;-47
2023/12/08 10:14:12;;;;;;;2.45;2.22;;;;;;;10.90;64.84;100637.94;5049413;28;20469;-49
2023/12/08 10:16:38;;;;;;;2.72;2.20;;;;;;;10.90;65.16;100626.44;5050331;28;20170;-45
2023/12/08 10:19:07;;;;;;;3.83;2.78;;;;;;;10.90;64.89;100627.28;5048446;28;20104;-47
2023/12/08 10:21:36;;;;;;;3.05;2.25;;;;;;;10.90;64.86;100623.78;5053868;28;20112;-49
2023/12/08 10:24:03;;;;;;;4.28;2.40;;;;;;;10.90;65.06;100637.09;5049371;28;20064;-47
2023/12/08 10:26:30;;;;;;;2.85;2.30;;;;;;;10.90;65.00;100637.94;5048859;28;20045;-46
2023/12/08 10:28:57;;;;;;;3.30;2.50;;;;;;;10.90;64.92;100640.59;5050754;28;20112;-49
2023/12/08 10:31:23;;;;;;;2.78;2.28;;;;;;;10.89;64.86;100641.59;5048820;28;20589;-47
2023/12/08 10:33:50;;;;;;;4.15;2.05;;;;;;;10.90;64.88;100647.75;5048043;28;20088;-48
2023/12/08 10:36:16;;;;;;;3.83;2.22;;;;;;;10.89;64.88;100646.91;5039188;28;20781;-50
2023/12/08 10:38:42;;;;;;;2.75;2.00;;;;;;;10.90;64.79;100647.75;5048115;28;20036;-50
2023/12/08 10:41:11;;;;;;;2.88;2.25;;;;;;;10.90;64.95;100648.59;5045107;28;20029;-47
2023/12/08 10:43:37;;;;;;;3.72;2.60;;;;;;;10.89;65.03;100636.25;5049831;28;20124;-48
2023/12/08 10:46:03;;;;;;;3.08;2.78;;;;;;;10.90;64.94;100642.44;5050517;28;20124;-48
2023/12/08 10:48:29;;;;;;;4.00;2.50;;;;;;;10.89;64.80;100636.25;5047881;28;20028;-49
2023/12/08 10:50:55;;;;;;;2.80;2.22;;;;;;;10.90;65.04;100643.28;5050426;28;20032;-47
2023/12/08 10:53:21;;;;;;;2.55;2.10;;;;;;;10.90;64.75;100637.09;5034361;28;20058;-51
2023/12/08 10:56:01;;;;;;;3.83;3.47;;;;;;;10.90;64.80;100643.28;5046736;28;20516;-49
2023/12/08 10:58:28;;;;;;;3.00;2.08;;;;;;;10.90;64.79;100640.59;5043594;28;20478;-48
2023/12/08 11:00:54;;;;;;;4.30;2.90;;;;;;;10.90;64.93;100632.63;5049276;28;20025;-46
2023/12/08 11:03:21;;;;;;;5.97;2.45;;;;;;;10.90;64.98;100631.78;5050403;28;20029;-47
2023/12/08 11:06:13;;;;;;;2.75;2.00;;;;;;;10.90;64.92;100637.94;5045653;28;20029;-47
2023/12/08 11:08:44;;;;;;;3.53;2.42;;;;;;;10.90;64.75;100642.44;5050217;28;20101;-48
2023/12/08 11:11:11;;;;;;;;;;;;;;;10.97;64.73;100649.03;5049920;28;20086;-47
2023/12/08 11:13:38;;;;;;;2.83;2.30;;;;;;;10.92;64.68;100644.00;5045634;28;20256;-49
2023/12/08 11:16:22;;;;;;;3.55;2.33;;;;;;;10.92;64.74;100644.00;5044571;28;20104;-47
2023/12/08 11:18:49;;;;;;;4.25;2.15;;;;;;;10.91;64.44;100650.31;5052783;28;20051;-46
2023/12/08 11:21:14;;;;;;;3.28;2.35;;;;;;;10.90;64.51;100651.25;5040435;28;20537;-46